createdAt,value
2019-01-25T00:01:55.910Z,100975.90
2019-01-25T00:04:22.026Z,100978.36
2019-01-25T00:06:48.192Z,100984.62
2019-01-25T00:09:14.328Z,100983.12
2019-01-25T00:11:40.559Z,100986.38
2019-01-25T00:14:06.944Z,100991.42
2019-01-25T00:16:33.075Z,100993.46
2019-01-25T00:18:59.265Z,100995.47
2019-01-25T00:21:25.363Z,100998.86
2019-01-25T00:23:51.666Z,100998.17
2019-01-25T00:26:17.897Z,100991.97
2019-01-25T00:28:44.064Z,100993.60
2019-01-25T00:53:53.393Z,101007.00
2019-01-25T00:56:19.591Z,101010.24
2019-01-25T00:58:45.819Z,101016.91
2019-01-25T01:01:12.072Z,101000.81
2019-01-25T01:03:38.355Z,100997.91
2019-01-25T01:06:04.668Z,100997.16
2019-01-25T01:08:30.881Z,100993.44
2019-01-25T01:10:57.008Z,101007.33
2019-01-25T01:13:23.282Z,101008.73
2019-01-25T01:15:49.540Z,101012.24
2019-01-25T01:18:15.736Z,101013.25
2019-01-25T01:20:41.852Z,101012.50
2019-01-25T01:23:08.182Z,101013.09
2019-01-25T01:25:34.356Z,101020.03
2019-01-25T01:28:00.493Z,101020.09
2019-01-25T01:30:26.625Z,101028.77
2019-01-25T01:32:53.409Z,101033.61
2019-01-25T01:35:19.537Z,101040.30
2019-01-25T01:37:45.667Z,101043.75
2019-01-25T01:40:21.767Z,101050.42
2019-01-25T01:42:44.940Z,101050.05
2019-01-25T01:45:11.294Z,101053.17
2019-01-25T01:47:37.462Z,101058.88
2019-01-25T01:50:12.418Z,101054.63
2019-01-25T01:52:38.604Z,101041.34
2019-01-25T01:55:04.952Z,101048.41
2019-01-25T01:57:31.091Z,101052.73
2019-01-25T01:59:57.311Z,101048.52
2019-01-25T02:02:23.471Z,101045.55
2019-01-25T02:04:49.593Z,101053.80
2019-01-25T02:07:15.794Z,101048.25
2019-01-25T02:09:41.911Z,101037.55
2019-01-25T02:12:08.059Z,101034.59
2019-01-25T02:14:34.251Z,101033.83
2019-01-25T02:17:00.617Z,101023.84
2019-01-25T02:19:26.902Z,101017.42
2019-01-25T02:21:53.015Z,101005.78
2019-01-25T02:24:19.198Z,100994.56
2019-01-25T02:26:45.333Z,101005.50
2019-01-25T02:29:11.522Z,101005.11
2019-01-25T02:31:37.641Z,100992.56
2019-01-25T02:34:03.796Z,100987.05
2019-01-25T02:36:29.984Z,100988.77
2019-01-25T02:38:56.224Z,100986.17
2019-01-25T02:41:22.333Z,100996.11
2019-01-25T02:43:48.546Z,100999.61
2019-01-25T02:46:14.717Z,100990.92
2019-01-25T02:48:40.873Z,100985.80
2019-01-25T02:51:07.025Z,100987.14
2019-01-25T02:53:33.084Z,100985.38
2019-01-25T02:55:59.136Z,100991.89
2019-01-25T02:58:25.308Z,100984.93
2019-01-25T03:00:51.361Z,100979.75
2019-01-25T03:03:17.621Z,100985.38
2019-01-25T03:05:43.807Z,100985.50
2019-01-25T03:08:09.962Z,100993.37
2019-01-25T03:10:36.204Z,100991.12
2019-01-25T03:13:02.516Z,100978.66
2019-01-25T03:15:28.701Z,100970.52
2019-01-25T03:17:54.960Z,100969.70
2019-01-25T03:20:21.431Z,100968.40
2019-01-25T03:22:47.610Z,100968.45
2019-01-25T03:25:21.964Z,100967.53
2019-01-25T03:27:48.131Z,100977.89
2019-01-25T03:30:19.166Z,100980.48
2019-01-25T03:32:45.292Z,100986.95
2019-01-25T03:35:13.543Z,100988.77
2019-01-25T03:37:39.776Z,100995.25
2019-01-25T03:40:12.368Z,100984.04
2019-01-25T03:42:38.525Z,100981.45
2019-01-25T03:45:07.057Z,100984.89
2019-01-25T03:47:33.167Z,100973.19
2019-01-25T03:49:59.360Z,100972.86
2019-01-25T03:52:25.542Z,100968.50
2019-01-25T03:54:51.719Z,100976.22
2019-01-25T03:57:17.880Z,100977.52
2019-01-25T03:59:44.026Z,100971.95
2019-01-25T04:02:10.184Z,100968.87
2019-01-25T04:04:36.354Z,100971.37
2019-01-25T04:07:02.634Z,100967.69
2019-01-25T04:09:28.777Z,100975.69
2019-01-25T04:11:54.956Z,100982.11
2019-01-25T04:14:21.118Z,100990.89
2019-01-25T04:16:47.404Z,100989.12
2019-01-25T04:19:13.522Z,100995.06
2019-01-25T04:21:39.704Z,100996.98
2019-01-25T04:24:07.178Z,100991.41
2019-01-25T04:26:33.510Z,100989.12
2019-01-25T04:28:59.567Z,100991.61
2019-01-25T04:31:25.706Z,100998.95
2019-01-25T04:33:51.867Z,101016.30
2019-01-25T04:36:18.049Z,101027.04
2019-01-25T04:38:44.239Z,101031.74
2019-01-25T04:41:11.723Z,101040.80
2019-01-25T04:43:38.293Z,101045.17
2019-01-25T04:46:04.515Z,101044.73
2019-01-25T04:48:30.712Z,101059.41
2019-01-25T04:50:56.825Z,101065.56
2019-01-25T04:53:23.004Z,101077.16
2019-01-25T04:55:49.145Z,101087.95
2019-01-25T04:58:15.285Z,101076.34
2019-01-25T05:00:41.486Z,101062.58
2019-01-25T05:03:07.681Z,101043.59
2019-01-25T05:05:33.915Z,101024.23
2019-01-25T05:08:05.999Z,101021.83
2019-01-25T05:10:32.116Z,101016.98
2019-01-25T05:12:58.246Z,101013.05
2019-01-25T05:15:24.370Z,101007.39
2019-01-25T05:17:52.574Z,101010.78
2019-01-25T05:20:18.732Z,101006.42
2019-01-25T05:22:50.373Z,101003.06
2019-01-25T05:25:21.597Z,101015.83
2019-01-25T05:27:47.733Z,101019.32
2019-01-25T05:30:13.858Z,101028.77
2019-01-25T05:32:39.988Z,101027.62
2019-01-25T05:35:06.130Z,101030.55
2019-01-25T05:37:32.251Z,101035.44
2019-01-25T05:39:58.428Z,101043.59
2019-01-25T05:42:24.694Z,101039.72
2019-01-25T05:44:50.825Z,101036.78
2019-01-25T05:47:16.924Z,101038.95
2019-01-25T05:49:43.079Z,101043.31
2019-01-25T05:52:16.168Z,101043.36
2019-01-25T05:54:42.359Z,101050.31
2019-01-25T05:57:08.534Z,101049.89
2019-01-25T05:59:34.786Z,101047.30
2019-01-25T06:02:01.108Z,101033.11
2019-01-25T06:04:36.111Z,101037.36
2019-01-25T06:07:02.341Z,101025.23
2019-01-25T06:09:28.459Z,101024.75
2019-01-25T06:11:54.612Z,101020.10
2019-01-25T06:14:20.756Z,101008.50
2019-01-25T06:16:46.897Z,101017.94
2019-01-25T06:19:13.154Z,101019.23
2019-01-25T06:21:39.322Z,101014.11
2019-01-25T06:24:05.449Z,101016.22
2019-01-25T06:26:31.593Z,101018.04
2019-01-25T06:28:57.722Z,101027.11
2019-01-25T06:31:23.834Z,101029.22
2019-01-25T06:33:50.031Z,101038.23
2019-01-25T06:36:16.207Z,101046.53
2019-01-25T06:38:42.340Z,101045.23
2019-01-25T06:41:08.937Z,101050.84
2019-01-25T06:43:35.089Z,101039.68
2019-01-25T06:46:01.297Z,101042.75
2019-01-25T06:48:27.459Z,101041.93
2019-01-25T06:50:53.562Z,101031.09
2019-01-25T06:53:19.638Z,101030.61
2019-01-25T06:55:45.802Z,101023.37
2019-01-25T06:58:25.903Z,101016.08
2019-01-25T07:01:02.996Z,101012.91
2019-01-25T07:03:29.220Z,101009.95
2019-01-25T07:05:55.331Z,101018.95
2019-01-25T07:08:21.559Z,101018.56
2019-01-25T07:10:47.662Z,101023.37
2019-01-25T07:13:13.919Z,101024.28
2019-01-25T07:15:40.119Z,101029.89
2019-01-25T07:18:06.361Z,101034.69
2019-01-25T07:20:32.542Z,101036.80
2019-01-25T07:22:58.647Z,101044.67
2019-01-25T07:25:24.754Z,101055.03
2019-01-25T07:27:50.903Z,101055.03
2019-01-25T07:30:17.060Z,101055.85
2019-01-25T07:32:43.134Z,101053.06
2019-01-25T07:35:09.788Z,101049.56
2019-01-25T07:37:36.187Z,101051.25
2019-01-25T07:40:04.865Z,101048.70
2019-01-25T07:42:31.063Z,101048.79
2019-01-25T07:44:57.191Z,101053.55
2019-01-25T07:47:23.378Z,101055.77
2019-01-25T07:49:49.430Z,101058.35
2019-01-25T07:52:15.643Z,101056.77
2019-01-25T07:54:41.766Z,101058.11
2019-01-25T07:57:07.898Z,101061.57
2019-01-25T07:59:34.073Z,101062.47
2019-01-25T08:02:00.242Z,101067.37
2019-01-25T08:04:26.484Z,101066.03
2019-01-25T08:06:52.616Z,101062.72
2019-01-25T08:09:18.720Z,101055.42
2019-01-25T08:11:44.948Z,101055.95
2019-01-25T08:14:12.785Z,101058.16
2019-01-25T08:16:39.165Z,101062.09
2019-01-25T08:19:05.388Z,101064.64
2019-01-25T08:21:31.627Z,101070.05
2019-01-25T08:23:57.781Z,101073.09
2019-01-25T08:26:23.764Z,101070.50
2019-01-25T08:28:49.960Z,101075.02
2019-01-25T08:31:16.305Z,101067.71
2019-01-25T08:33:42.522Z,101074.33
2019-01-25T08:36:08.687Z,101079.99
2019-01-25T08:38:34.705Z,101078.66
2019-01-25T08:41:00.913Z,101089.16
2019-01-25T08:43:27.037Z,101097.42
2019-01-25T08:45:53.187Z,101096.70
2019-01-25T08:48:20.429Z,101101.50
2019-01-25T08:50:46.605Z,101098.09
2019-01-25T08:53:12.901Z,101104.23
2019-01-25T08:55:39.230Z,101109.13
2019-01-25T08:58:05.397Z,101114.31
2019-01-25T09:00:31.474Z,101106.53
2019-01-25T09:02:57.622Z,101099.91
2019-01-25T09:05:23.746Z,101096.53
2019-01-25T09:07:49.871Z,101090.14
2019-01-25T09:10:18.286Z,101097.50
2019-01-25T09:22:55.929Z,101090.08
2019-01-25T09:25:22.170Z,101082.13
2019-01-25T09:27:48.306Z,101084.11
2019-01-25T09:30:20.432Z,101082.77
2019-01-25T09:32:46.599Z,101082.17
2019-01-25T09:35:13.033Z,101079.16
2019-01-25T09:37:39.150Z,101081.35
2019-01-25T09:40:09.017Z,101085.34
2019-01-25T09:42:35.237Z,101088.41
2019-01-25T09:45:01.527Z,101086.50
2019-01-25T09:47:27.731Z,101087.41
2019-01-25T09:49:53.876Z,101083.05
2019-01-25T09:52:20.041Z,101078.80
2019-01-25T09:54:46.247Z,101078.46
2019-01-25T09:57:12.519Z,101077.81
2019-01-25T09:59:38.641Z,101077.94
2019-01-25T10:02:04.783Z,101093.76
2019-01-25T10:04:30.996Z,101089.48
2019-01-25T10:06:57.142Z,101097.23
2019-01-25T10:09:23.248Z,101092.05
2019-01-25T10:11:49.379Z,101089.58
2019-01-25T10:14:15.492Z,101099.91
2019-01-25T10:16:41.742Z,101098.93
2019-01-25T10:19:07.879Z,101102.73
2019-01-25T10:21:34.342Z,101096.20
2019-01-25T10:24:00.700Z,101097.67
2019-01-25T10:26:26.994Z,101102.70
2019-01-25T10:28:53.219Z,101095.47
2019-01-25T10:31:19.377Z,101087.59
2019-01-25T10:33:45.711Z,101090.19
2019-01-25T10:36:11.825Z,101089.15
2019-01-25T10:38:37.971Z,101085.44
2019-01-25T10:41:04.187Z,101076.00
2019-01-25T10:43:30.431Z,101071.89
2019-01-25T10:45:56.610Z,101065.19
2019-01-25T10:48:22.899Z,101056.80
2019-01-25T10:50:49.210Z,101052.81
2019-01-25T10:53:15.611Z,101046.61
2019-01-25T10:55:41.746Z,101038.35
2019-01-25T10:58:08.485Z,101024.46
2019-01-25T11:00:34.740Z,101014.98
2019-01-25T11:03:00.900Z,101013.77
2019-01-25T11:05:27.823Z,100999.39
2019-01-25T11:07:53.998Z,101003.67
2019-01-25T11:10:20.113Z,101014.53
2019-01-25T11:12:46.319Z,101006.58
2019-01-25T11:15:16.065Z,101009.77
2019-01-25T11:17:42.217Z,101004.22
2019-01-25T11:20:14.723Z,100989.86
2019-01-25T11:22:40.903Z,100995.34
2019-01-25T11:25:10.653Z,100989.90
2019-01-25T11:27:36.836Z,100980.25
2019-01-25T11:30:06.048Z,100982.36
2019-01-25T11:32:32.144Z,100980.48
2019-01-25T11:34:58.443Z,100973.52
2019-01-25T11:37:24.576Z,100972.61
2019-01-25T11:39:50.728Z,100986.55
2019-01-25T11:42:17.025Z,100985.56
2019-01-25T11:44:43.217Z,100979.30
2019-01-25T11:47:09.324Z,100973.05
2019-01-25T11:49:35.308Z,100975.69
2019-01-25T11:52:01.590Z,100976.23
2019-01-25T11:54:27.680Z,100971.87
2019-01-25T11:56:53.819Z,100963.34
2019-01-25T11:59:19.970Z,100970.89
2019-01-25T12:01:46.110Z,100970.09
2019-01-25T12:04:12.410Z,100970.57
2019-01-25T12:06:38.521Z,100961.55
2019-01-25T12:09:06.479Z,100958.73
2019-01-25T12:11:32.719Z,100956.16
2019-01-25T12:13:58.872Z,100954.80
2019-01-25T12:16:25.074Z,100953.23
2019-01-25T12:18:51.295Z,100948.47
2019-01-25T12:21:17.408Z,100947.65
2019-01-25T12:23:43.552Z,100957.79
2019-01-25T12:26:09.661Z,100957.57
2019-01-25T12:28:35.793Z,100957.90
2019-01-25T12:31:01.904Z,100957.00
2019-01-25T12:33:28.083Z,100959.99
2019-01-25T12:35:54.312Z,100957.58
2019-01-25T12:38:20.508Z,100952.66
2019-01-25T12:40:46.654Z,100939.31
2019-01-25T12:43:12.846Z,100940.69
2019-01-25T12:45:38.992Z,100941.84
2019-01-25T12:48:05.413Z,100928.59
2019-01-25T12:50:40.386Z,100927.91
2019-01-25T12:53:08.434Z,100926.83
2019-01-25T12:55:34.566Z,100919.89
2019-01-25T12:58:00.727Z,100904.38
2019-01-25T13:00:28.773Z,100904.02
2019-01-25T13:02:54.973Z,100900.05
2019-01-25T13:05:21.515Z,100893.05
2019-01-25T13:07:47.728Z,100902.97
2019-01-25T13:10:22.295Z,100895.22
2019-01-25T13:12:49.706Z,100896.88
2019-01-25T13:15:16.137Z,100894.23
2019-01-25T13:17:42.506Z,100892.61
2019-01-25T13:20:17.844Z,100894.06
2019-01-25T13:22:43.958Z,100887.56
2019-01-25T13:25:10.282Z,100881.90
2019-01-25T13:27:36.640Z,100880.20
2019-01-25T13:30:06.385Z,100878.47
2019-01-25T13:32:32.484Z,100867.86
2019-01-25T13:34:58.625Z,100870.89
2019-01-25T13:37:24.853Z,100877.89
2019-01-25T13:39:51.028Z,100873.09
2019-01-25T13:42:17.208Z,100864.63
2019-01-25T13:44:43.508Z,100869.23
2019-01-25T13:47:09.583Z,100876.84
2019-01-25T13:49:35.728Z,100868.08
2019-01-25T13:52:01.835Z,100870.21
2019-01-25T13:54:28.958Z,100868.48
2019-01-25T13:56:55.242Z,100862.49
2019-01-25T13:59:21.525Z,100860.29
2019-01-25T14:01:47.680Z,100863.50
2019-01-25T14:04:14.027Z,100853.03
2019-01-25T14:06:40.176Z,100855.56
2019-01-25T14:09:07.593Z,100859.86
2019-01-25T14:11:33.684Z,100854.23
2019-01-25T14:13:59.822Z,100848.20
2019-01-25T14:16:26.081Z,100853.36
2019-01-25T14:18:52.400Z,100862.49
2019-01-25T14:21:18.560Z,100860.43
2019-01-25T14:23:44.599Z,100845.34
2019-01-25T14:26:10.743Z,100851.45
2019-01-25T14:28:36.762Z,100853.50
2019-01-25T14:31:03.207Z,100838.95
2019-01-25T14:33:31.937Z,100843.58
2019-01-25T14:35:58.106Z,100846.75
2019-01-25T14:38:24.216Z,100840.69
2019-01-25T14:40:50.322Z,100834.98
2019-01-25T14:43:16.524Z,100825.93
2019-01-25T14:45:42.620Z,100828.56
2019-01-25T14:48:08.894Z,100830.26
2019-01-25T14:50:35.131Z,100828.46
2019-01-25T14:53:01.222Z,100823.30
2019-01-25T14:55:27.445Z,100816.27
2019-01-25T14:57:53.701Z,100816.30
2019-01-25T15:00:19.871Z,100825.86
2019-01-25T15:02:46.321Z,100823.23
2019-01-25T15:05:15.129Z,100819.84
2019-01-25T15:07:41.379Z,100830.13
2019-01-25T15:10:11.254Z,100835.75
2019-01-25T15:12:37.353Z,100840.55
2019-01-25T15:15:07.099Z,100826.80
2019-01-25T15:17:33.224Z,100838.48
2019-01-25T15:19:59.456Z,100836.28
2019-01-25T15:22:25.617Z,100838.16
2019-01-25T15:24:51.756Z,100835.99
2019-01-25T15:27:17.990Z,100834.77
2019-01-25T15:29:44.156Z,100839.99
2019-01-25T15:32:10.305Z,100835.66
2019-01-25T15:34:36.424Z,100833.13
2019-01-25T15:37:02.597Z,100832.80
2019-01-25T15:39:28.734Z,100835.50
2019-01-25T15:41:55.018Z,100831.23
2019-01-25T15:44:21.128Z,100836.50
2019-01-25T15:46:47.358Z,100825.64
2019-01-25T15:49:13.641Z,100829.63
2019-01-25T15:51:39.744Z,100834.00
2019-01-25T15:54:05.917Z,100834.89
2019-01-25T15:56:32.010Z,100834.56
2019-01-25T15:58:59.954Z,100832.70
2019-01-25T16:01:26.093Z,100837.50
2019-01-25T16:03:52.392Z,100828.83
2019-01-25T16:06:18.505Z,100829.80
2019-01-25T16:08:44.626Z,100825.40
2019-01-25T16:11:10.819Z,100828.83
2019-01-25T16:13:36.859Z,100832.43
2019-01-25T16:16:03.122Z,100823.27
2019-01-25T16:18:29.297Z,100826.23
2019-01-25T16:20:55.403Z,100831.09
2019-01-25T16:23:21.650Z,100834.16
2019-01-25T16:25:47.888Z,100840.29
2019-01-25T16:28:14.046Z,100834.72
2019-01-25T16:30:40.205Z,100833.52
2019-01-25T16:33:06.686Z,100838.28
2019-01-25T16:35:32.917Z,100834.91
2019-01-25T16:37:59.202Z,100835.84
2019-01-25T16:40:29.478Z,100838.45
2019-01-25T16:42:55.759Z,100831.55
2019-01-25T16:45:24.776Z,100832.01
2019-01-25T16:47:51.844Z,100837.24
2019-01-25T16:50:23.583Z,100841.91
2019-01-25T16:52:46.150Z,100838.88
2019-01-25T16:55:14.141Z,100844.55
2019-01-25T16:57:40.410Z,100842.78
2019-01-25T17:00:13.296Z,100842.88
2019-01-25T17:02:39.478Z,100841.52
2019-01-25T17:05:07.792Z,100841.98
2019-01-25T17:07:34.067Z,100840.30
2019-01-25T17:10:00.340Z,100840.67
2019-01-25T17:12:26.620Z,100842.94
2019-01-25T17:14:52.811Z,100838.63
2019-01-25T17:17:18.949Z,100834.77
2019-01-25T17:19:45.111Z,100839.16
2019-01-25T17:22:11.231Z,100834.05
2019-01-25T17:24:37.422Z,100833.65
2019-01-25T17:27:03.635Z,100831.58
2019-01-25T17:29:29.960Z,100833.80
2019-01-25T17:31:56.176Z,100827.33
2019-01-25T17:34:22.472Z,100841.27
2019-01-25T17:36:48.629Z,100839.16
2019-01-25T17:39:14.927Z,100834.02
2019-01-25T17:41:41.076Z,100832.28
2019-01-25T17:44:07.669Z,100834.97
2019-01-25T17:46:34.224Z,100830.72
2019-01-25T17:49:00.657Z,100831.21
2019-01-25T17:51:27.336Z,100831.68
2019-01-25T17:53:53.452Z,100830.46
2019-01-25T17:56:19.653Z,100831.38
2019-01-25T17:58:45.794Z,100837.95
2019-01-25T18:01:12.054Z,100833.64
2019-01-25T18:03:38.318Z,100830.28
2019-01-25T18:06:04.525Z,100827.33
2019-01-25T18:08:30.774Z,100831.23
2019-01-25T18:10:57.161Z,100829.20
2019-01-25T18:13:23.365Z,100843.06
2019-01-25T18:15:49.606Z,100836.63
2019-01-25T18:18:15.887Z,100839.67
2019-01-25T18:20:43.907Z,100836.61
2019-01-25T18:23:10.063Z,100844.05
2019-01-25T18:25:44.545Z,100845.72
2019-01-25T18:28:16.869Z,100834.95
2019-01-25T18:30:55.320Z,100845.40
2019-01-25T18:33:21.575Z,100839.89
2019-01-25T18:35:47.810Z,100838.50
2019-01-25T18:38:13.957Z,100845.16
2019-01-25T18:40:41.033Z,100841.22
2019-01-25T18:43:07.382Z,100839.19
2019-01-25T18:45:33.634Z,100837.86
2019-01-25T18:47:59.842Z,100832.67
2019-01-25T18:50:26.073Z,100835.70
2019-01-25T18:52:52.246Z,100838.75
2019-01-25T18:55:21.062Z,100845.02
2019-01-25T18:57:47.185Z,100844.27
2019-01-25T19:00:16.284Z,100838.73
2019-01-25T19:02:42.417Z,100840.44
2019-01-25T19:05:09.055Z,100838.76
2019-01-25T19:07:35.188Z,100837.53
2019-01-25T19:10:05.134Z,100841.85
2019-01-25T19:12:31.275Z,100837.17
2019-01-25T19:15:04.134Z,100841.61
2019-01-25T19:17:25.730Z,100842.12
2019-01-25T19:19:51.901Z,100833.48
2019-01-25T19:22:18.030Z,100840.45
2019-01-25T19:24:47.204Z,100841.83
2019-01-25T19:27:13.391Z,100835.32
2019-01-25T19:29:39.502Z,100837.95
2019-01-25T19:32:05.620Z,100828.08
2019-01-25T19:34:31.759Z,100831.16
2019-01-25T19:36:57.900Z,100827.80
2019-01-25T19:39:24.064Z,100830.43
2019-01-25T19:41:50.169Z,100827.41
2019-01-25T19:44:16.399Z,100827.05
2019-01-25T19:46:42.621Z,100825.32
2019-01-25T19:49:08.769Z,100828.84
2019-01-25T19:51:35.009Z,100824.13
2019-01-25T19:54:01.288Z,100820.24
2019-01-25T19:56:27.490Z,100819.84
2019-01-25T19:58:53.617Z,100815.09
2019-01-25T20:01:19.855Z,100819.02
2019-01-25T20:03:45.982Z,100818.61
2019-01-25T20:06:12.260Z,100819.50
2019-01-25T20:08:38.440Z,100811.33
2019-01-25T20:11:04.657Z,100813.94
2019-01-25T20:13:30.851Z,100817.42
2019-01-25T20:15:57.097Z,100817.10
2019-01-25T20:18:23.272Z,100818.88
2019-01-25T20:20:49.553Z,100816.25
2019-01-25T20:23:15.762Z,100817.62
2019-01-25T20:25:41.950Z,100817.20
2019-01-25T20:28:08.702Z,100819.84
2019-01-25T20:30:34.931Z,100819.45
2019-01-25T20:33:03.166Z,100819.49
2019-01-25T20:35:35.021Z,100817.80
2019-01-25T20:38:01.247Z,100822.59
2019-01-25T20:40:27.397Z,100830.07
2019-01-25T20:42:53.708Z,100828.80
2019-01-25T20:45:27.015Z,100834.52
2019-01-25T20:47:50.757Z,100836.28
2019-01-25T20:50:19.708Z,100832.88
2019-01-25T20:52:45.824Z,100826.40
2019-01-25T20:55:14.770Z,100824.77
2019-01-25T20:57:41.015Z,100821.26
2019-01-25T21:00:13.503Z,100828.31
2019-01-25T21:02:39.742Z,100822.68
2019-01-25T21:05:06.996Z,100829.65
2019-01-25T21:07:33.211Z,100822.30
2019-01-25T21:09:59.476Z,100823.19
2019-01-25T21:12:25.693Z,100827.52
2019-01-25T21:14:51.843Z,100838.38
2019-01-25T21:17:18.070Z,100827.94
2019-01-25T21:19:44.308Z,100836.27
2019-01-25T21:22:10.524Z,100835.83
2019-01-25T21:24:36.708Z,100831.94
2019-01-25T21:27:02.971Z,100835.02
2019-01-25T21:29:29.183Z,100836.37
2019-01-25T21:31:55.444Z,100841.58
2019-01-25T21:34:21.580Z,100842.95
2019-01-25T21:36:47.706Z,100840.78
2019-01-25T21:39:13.885Z,100832.56
2019-01-25T21:41:40.120Z,100836.55
2019-01-25T21:44:06.428Z,100827.89
2019-01-25T21:46:39.790Z,100833.23
2019-01-25T21:49:00.641Z,100835.02
2019-01-25T21:51:26.796Z,100829.36
2019-01-25T21:53:52.994Z,100828.53
2019-01-25T21:56:19.135Z,100829.44
2019-01-25T21:58:45.266Z,100833.38
2019-01-25T22:01:11.493Z,100832.94
2019-01-25T22:03:37.637Z,100832.09
2019-01-25T22:06:04.052Z,100825.09
2019-01-25T22:08:30.253Z,100824.21
2019-01-25T22:10:56.476Z,100825.08
2019-01-25T22:13:22.726Z,100830.33
2019-01-25T22:15:51.023Z,100827.72
2019-01-25T22:18:17.029Z,100821.17
2019-01-25T22:20:43.166Z,100832.08
2019-01-25T22:23:09.533Z,100823.80
2019-01-25T22:25:35.754Z,100823.41
2019-01-25T22:28:01.887Z,100820.37
2019-01-25T22:30:28.082Z,100826.02
2019-01-25T22:32:54.726Z,100824.30
2019-01-25T22:35:20.952Z,100819.55
2019-01-25T22:37:47.067Z,100816.12
2019-01-25T22:40:21.891Z,100822.19
2019-01-25T22:42:48.033Z,100812.22
2019-01-25T22:45:16.767Z,100809.66
2019-01-25T22:47:42.905Z,100815.80
2019-01-25T22:50:17.869Z,100815.80
2019-01-25T22:52:44.029Z,100817.52
2019-01-25T22:55:13.137Z,100816.14
2019-01-25T22:57:39.420Z,100823.55
2019-01-25T23:00:11.988Z,100816.95
2019-01-25T23:02:38.444Z,100819.11
2019-01-25T23:05:23.507Z,100819.99
2019-01-25T23:07:49.657Z,100827.41
2019-01-25T23:10:15.953Z,100825.22
2019-01-25T23:12:42.141Z,100820.84
2019-01-25T23:15:08.928Z,100828.26
2019-01-25T23:17:35.166Z,100826.09
2019-01-25T23:20:01.306Z,100825.28
2019-01-25T23:22:27.470Z,100828.78
2019-01-25T23:24:53.587Z,100826.54
2019-01-25T23:27:19.770Z,100825.23
2019-01-25T23:29:46.049Z,100823.91
2019-01-25T23:32:12.255Z,100822.11
2019-01-25T23:34:38.433Z,100817.27
2019-01-25T23:37:04.682Z,100813.33
2019-01-25T23:39:30.892Z,100812.86
2019-01-25T23:41:57.084Z,100811.15
2019-01-25T23:44:23.370Z,100815.93
2019-01-25T23:46:49.709Z,100813.80
2019-01-25T23:49:15.936Z,100816.82
2019-01-25T23:51:42.204Z,100810.23
2019-01-25T23:54:08.309Z,100822.42
2019-01-25T23:56:34.451Z,100822.44
2019-01-25T23:59:00.580Z,100824.65
